createdAt,value
2023-02-14T00:00:35.313Z,0.00
2023-02-14T00:01:35.305Z,0.00
2023-02-14T00:02:35.373Z,0.00
2023-02-14T00:03:35.304Z,0.00
2023-02-14T00:04:35.343Z,0.00
2023-02-14T00:05:35.302Z,0.00
2023-02-14T00:06:35.300Z,0.00
2023-02-14T00:07:35.297Z,0.00
2023-02-14T00:08:35.294Z,0.00
2023-02-14T00:09:35.289Z,0.00
2023-02-14T00:10:35.296Z,0.00
2023-02-14T00:11:35.279Z,0.00
2023-02-14T00:12:35.282Z,0.00
2023-02-14T00:13:35.273Z,0.00
2023-02-14T00:14:35.273Z,0.00
2023-02-14T00:15:35.297Z,0.00
2023-02-14T00:16:35.276Z,0.00
2023-02-14T00:17:35.268Z,0.00
2023-02-14T00:18:35.266Z,0.00
2023-02-14T00:19:35.253Z,0.00
2023-02-14T00:20:35.256Z,0.00
2023-02-14T00:21:35.248Z,0.00
2023-02-14T00:22:35.249Z,0.00
2023-02-14T00:23:35.244Z,0.00
2023-02-14T00:24:35.253Z,0.00
2023-02-14T00:25:35.240Z,0.00
2023-02-14T00:26:35.252Z,0.00
2023-02-14T00:27:35.233Z,0.00
2023-02-14T00:28:35.232Z,0.00
2023-02-14T00:29:35.227Z,0.00
2023-02-14T00:30:35.396Z,0.00
2023-02-14T00:31:35.434Z,0.00
2023-02-14T00:32:35.223Z,0.00
2023-02-14T00:33:35.220Z,0.00
2023-02-14T00:34:35.218Z,0.00
2023-02-14T00:35:35.215Z,0.00
2023-02-14T00:36:35.212Z,0.00
2023-02-14T00:37:35.210Z,0.00
2023-02-14T00:38:35.214Z,0.00
2023-02-14T00:39:35.200Z,0.00
2023-02-14T00:40:35.199Z,0.00
2023-02-14T00:41:35.191Z,0.00
2023-02-14T00:42:35.214Z,0.00
2023-02-14T00:43:35.188Z,0.00
2023-02-14T00:44:35.187Z,0.00
2023-02-14T00:45:35.247Z,0.00
2023-02-14T00:46:35.185Z,0.00
2023-02-14T00:47:35.198Z,0.00
2023-02-14T00:48:35.174Z,0.00
2023-02-14T00:49:35.166Z,0.00
2023-02-14T00:50:35.175Z,0.00
2023-02-14T00:51:35.165Z,0.00
2023-02-14T00:52:35.191Z,0.00
2023-02-14T00:53:35.157Z,0.00
2023-02-14T00:54:35.156Z,0.00
2023-02-14T00:55:35.152Z,0.00
2023-02-14T00:56:35.151Z,0.00
2023-02-14T00:57:35.151Z,0.00
2023-02-14T00:58:35.149Z,0.00
2023-02-14T00:59:35.142Z,0.00
2023-02-14T01:00:35.187Z,0.00
2023-02-14T01:01:35.132Z,0.00
2023-02-14T01:02:35.217Z,0.00
2023-02-14T01:03:35.152Z,0.00
2023-02-14T01:04:35.130Z,0.00
2023-02-14T01:05:35.131Z,0.00
2023-02-14T01:06:35.126Z,0.00
2023-02-14T01:07:35.116Z,0.00
2023-02-14T01:08:35.116Z,0.00
2023-02-14T01:09:35.116Z,0.00
2023-02-14T01:10:35.117Z,0.00
2023-02-14T01:11:35.103Z,0.00
2023-02-14T01:12:35.104Z,0.00
2023-02-14T01:13:35.100Z,0.00
2023-02-14T01:14:35.098Z,0.00
2023-02-14T01:15:35.093Z,0.00
2023-02-14T01:16:35.135Z,0.00
2023-02-14T01:17:35.086Z,0.00
2023-02-14T01:18:35.085Z,0.00
2023-02-14T01:19:35.121Z,0.00
2023-02-14T01:20:35.091Z,0.00
2023-02-14T01:21:35.075Z,0.00
2023-02-14T01:22:35.082Z,0.00
2023-02-14T01:23:35.065Z,0.00
2023-02-14T01:24:35.070Z,0.00
2023-02-14T01:25:35.063Z,0.00
2023-02-14T01:26:35.065Z,0.00
2023-02-14T01:27:35.057Z,0.00
2023-02-14T01:28:35.062Z,0.00
2023-02-14T01:29:35.050Z,0.00
2023-02-14T01:30:35.052Z,0.00
2023-02-14T01:31:35.249Z,0.00
2023-02-14T01:32:35.044Z,0.00
2023-02-14T01:33:35.043Z,0.00
2023-02-14T01:34:35.058Z,0.00
2023-02-14T01:35:35.054Z,0.00
2023-02-14T01:36:35.037Z,0.00
2023-02-14T01:37:35.027Z,0.00
2023-02-14T01:38:35.031Z,0.00
2023-02-14T01:39:35.026Z,0.00
2023-02-14T01:40:35.024Z,0.00
2023-02-14T01:41:35.030Z,0.00
2023-02-14T01:42:35.019Z,0.00
2023-02-14T01:43:35.011Z,0.00
2023-02-14T01:44:35.019Z,0.00
2023-02-14T01:45:35.051Z,0.00
2023-02-14T01:46:35.008Z,0.00
2023-02-14T01:47:35.004Z,0.00
2023-02-14T01:48:35.000Z,0.00
2023-02-14T01:49:34.996Z,0.00
2023-02-14T01:50:34.997Z,0.00
2023-02-14T01:51:35.022Z,0.00
2023-02-14T01:52:35.012Z,0.00
2023-02-14T01:53:34.989Z,0.00
2023-02-14T01:54:34.987Z,0.00
2023-02-14T01:55:34.977Z,0.00
2023-02-14T01:56:34.982Z,0.00
2023-02-14T01:57:34.975Z,0.00
2023-02-14T01:58:35.001Z,0.00
2023-02-14T01:59:34.966Z,0.00
2023-02-14T02:00:34.968Z,0.00
2023-02-14T02:01:35.027Z,0.00
2023-02-14T02:02:35.007Z,0.00
2023-02-14T02:03:34.960Z,0.00
2023-02-14T02:04:34.959Z,0.00
2023-02-14T02:05:34.951Z,0.00
2023-02-14T02:06:34.949Z,0.00
2023-02-14T02:07:34.963Z,0.00
2023-02-14T02:08:34.952Z,0.00
2023-02-14T02:09:34.944Z,0.00
2023-02-14T02:10:34.940Z,0.00
2023-02-14T02:11:34.929Z,0.00
2023-02-14T02:12:34.934Z,0.00
2023-02-14T02:13:34.926Z,0.00
2023-02-14T02:14:34.924Z,0.00
2023-02-14T02:15:34.922Z,0.00
2023-02-14T02:16:34.976Z,0.00
2023-02-14T02:17:34.922Z,0.00
2023-02-14T02:18:34.915Z,0.00
2023-02-14T02:19:34.914Z,0.00
2023-02-14T02:20:34.902Z,0.00
2023-02-14T02:21:34.921Z,0.00
2023-02-14T02:22:34.901Z,0.00
2023-02-14T02:23:34.928Z,0.00
2023-02-14T02:24:34.890Z,0.00
2023-02-14T02:25:34.893Z,0.00
2023-02-14T02:26:34.889Z,0.00
2023-02-14T02:27:34.888Z,0.00
2023-02-14T02:28:34.877Z,0.00
2023-02-14T02:29:34.881Z,0.00
2023-02-14T02:30:35.061Z,0.00
2023-02-14T02:31:35.034Z,0.00
2023-02-14T02:32:34.863Z,0.00
2023-02-14T02:33:34.872Z,0.00
2023-02-14T02:34:34.862Z,0.00
2023-02-14T02:35:34.869Z,0.00
2023-02-14T02:36:34.851Z,0.00
2023-02-14T02:37:34.858Z,0.00
2023-02-14T02:38:34.849Z,0.00
2023-02-14T02:39:34.881Z,0.00
2023-02-14T02:40:34.853Z,0.00
2023-02-14T02:41:34.844Z,0.00
2023-02-14T02:42:34.836Z,0.00
2023-02-14T02:43:34.839Z,0.00
2023-02-14T02:44:34.835Z,0.00
2023-02-14T02:45:34.831Z,0.00
2023-02-14T02:46:34.829Z,0.00
2023-02-14T02:47:34.833Z,0.00
2023-02-14T02:48:34.818Z,0.00
2023-02-14T02:49:34.821Z,0.00
2023-02-14T02:50:34.812Z,0.00
2023-02-14T02:51:34.814Z,0.00
2023-02-14T02:52:34.805Z,0.00
2023-02-14T02:53:34.807Z,0.00
2023-02-14T02:54:34.820Z,0.00
2023-02-14T02:55:34.829Z,0.00
2023-02-14T02:56:34.794Z,0.00
2023-02-14T02:57:34.824Z,0.00
2023-02-14T02:58:34.819Z,0.00
2023-02-14T02:59:34.793Z,0.00
2023-02-14T03:00:34.785Z,0.00
2023-02-14T03:01:34.867Z,0.00
2023-02-14T03:02:34.778Z,0.00
2023-02-14T03:03:34.778Z,0.00
2023-02-14T03:04:34.779Z,0.00
2023-02-14T03:05:34.776Z,0.00
2023-02-14T03:06:34.768Z,0.00
2023-02-14T03:07:34.771Z,0.00
2023-02-14T03:08:34.781Z,0.00
2023-02-14T03:09:34.761Z,0.00
2023-02-14T03:10:34.754Z,0.00
2023-02-14T03:11:34.778Z,0.00
2023-02-14T03:12:34.751Z,0.00
2023-02-14T03:13:34.746Z,0.00
2023-02-14T03:14:34.744Z,0.00
2023-02-14T03:15:34.825Z,0.00
2023-02-14T03:16:34.753Z,0.00
2023-02-14T03:17:34.736Z,0.00
2023-02-14T03:18:34.729Z,0.00
2023-02-14T03:19:34.735Z,0.00
2023-02-14T03:20:34.721Z,0.00
2023-02-14T03:21:34.728Z,0.00
2023-02-14T03:22:34.715Z,0.00
2023-02-14T03:23:34.715Z,0.00
2023-02-14T03:24:34.715Z,0.00
2023-02-14T03:25:34.713Z,0.00
2023-02-14T03:26:34.707Z,0.00
2023-02-14T03:27:34.738Z,0.00
2023-02-14T03:28:34.698Z,0.00
2023-02-14T03:29:34.701Z,0.00
2023-02-14T03:30:34.690Z,0.00
2023-02-14T03:31:34.837Z,0.00
2023-02-14T03:32:34.688Z,0.00
2023-02-14T03:33:34.686Z,0.00
2023-02-14T03:34:34.691Z,0.00
2023-02-14T03:35:34.683Z,0.00
2023-02-14T03:36:34.670Z,0.00
2023-02-14T03:37:34.672Z,0.00
2023-02-14T03:38:34.670Z,0.00
2023-02-14T03:39:34.670Z,0.00
2023-02-14T03:40:34.659Z,0.00
2023-02-14T03:41:34.667Z,0.00
2023-02-14T03:42:34.655Z,0.00
2023-02-14T03:43:34.678Z,0.00
2023-02-14T03:44:34.648Z,0.00
2023-02-14T03:45:34.746Z,0.00
2023-02-14T03:46:34.708Z,0.00
2023-02-14T03:47:34.662Z,0.00
2023-02-14T03:48:34.642Z,0.00
2023-02-14T03:49:34.636Z,0.00
2023-02-14T03:50:34.627Z,0.00
2023-02-14T03:51:34.639Z,0.00
2023-02-14T03:52:34.622Z,0.00
2023-02-14T03:53:34.620Z,0.00
2023-02-14T03:54:34.637Z,0.00
2023-02-14T03:55:34.617Z,0.00
2023-02-14T03:56:34.626Z,0.00
2023-02-14T03:57:34.609Z,0.00
2023-02-14T03:58:34.626Z,0.00
2023-02-14T03:59:34.643Z,0.00
2023-02-14T04:00:34.593Z,0.00
2023-02-14T04:01:34.648Z,0.00
2023-02-14T04:02:34.589Z,0.00
2023-02-14T04:03:34.632Z,0.00
2023-02-14T04:04:34.579Z,0.00
2023-02-14T04:05:34.581Z,0.00
2023-02-14T04:06:34.579Z,0.00
2023-02-14T04:07:34.574Z,0.00
2023-02-14T04:08:34.566Z,0.00
2023-02-14T04:09:34.564Z,0.00
2023-02-14T04:10:34.568Z,0.00
2023-02-14T04:11:34.563Z,0.00
2023-02-14T04:12:38.037Z,0.00
2023-02-14T04:13:34.559Z,0.00
2023-02-14T04:14:34.552Z,0.00
2023-02-14T04:15:34.625Z,0.00
2023-02-14T04:16:34.556Z,0.00
2023-02-14T04:17:34.557Z,0.00
2023-02-14T04:18:34.537Z,0.00
2023-02-14T04:19:34.546Z,0.00
2023-02-14T04:20:34.532Z,0.00
2023-02-14T04:21:34.526Z,0.00
2023-02-14T04:22:34.526Z,0.00
2023-02-14T04:23:34.545Z,0.00
2023-02-14T04:24:34.517Z,0.00
2023-02-14T04:25:34.520Z,0.00
2023-02-14T04:26:34.511Z,0.00
2023-02-14T04:27:34.513Z,0.00
2023-02-14T04:28:34.509Z,0.00
2023-02-14T04:29:34.506Z,0.00
2023-02-14T04:30:34.498Z,0.00
2023-02-14T04:31:34.723Z,0.00
2023-02-14T04:32:34.493Z,0.00
2023-02-14T04:33:34.488Z,0.00
2023-02-14T04:34:34.483Z,0.00
2023-02-14T04:35:34.480Z,0.00
2023-02-14T04:36:34.475Z,0.00
2023-02-14T04:37:34.481Z,0.00
2023-02-14T04:38:34.472Z,0.00
2023-02-14T04:39:34.467Z,0.00
2023-02-14T04:40:34.464Z,0.00
2023-02-14T04:41:34.461Z,0.00
2023-02-14T04:42:34.452Z,0.00
2023-02-14T04:43:34.452Z,0.00
2023-02-14T04:44:34.453Z,0.00
2023-02-14T04:45:34.453Z,0.00
2023-02-14T04:46:34.508Z,0.00
2023-02-14T04:47:34.470Z,0.00
2023-02-14T04:48:34.431Z,0.00
2023-02-14T04:49:34.434Z,0.00
2023-02-14T04:50:34.423Z,0.00
2023-02-14T04:51:34.429Z,0.00
2023-02-14T04:52:34.442Z,0.00
2023-02-14T04:53:34.425Z,0.00
2023-02-14T04:54:34.410Z,0.00
2023-02-14T04:55:34.417Z,0.00
2023-02-14T04:56:34.423Z,0.00
2023-02-14T04:57:58.465Z,0.00
2023-02-14T04:58:58.454Z,0.00
2023-02-14T04:59:58.457Z,0.00
2023-02-14T05:00:58.935Z,0.00
2023-02-14T05:01:58.499Z,0.00
2023-02-14T05:02:58.461Z,0.00
2023-02-14T05:03:58.442Z,0.00
2023-02-14T05:04:58.434Z,0.00
2023-02-14T05:05:58.429Z,0.00
2023-02-14T05:06:58.423Z,0.00
2023-02-14T05:07:58.423Z,0.00
2023-02-14T05:08:58.416Z,0.00
2023-02-14T05:09:58.418Z,0.00
2023-02-14T05:10:58.823Z,0.00
2023-02-14T05:11:58.414Z,0.00
2023-02-14T05:12:58.405Z,0.00
2023-02-14T05:13:58.401Z,0.00
2023-02-14T05:14:58.393Z,0.00
2023-02-14T05:15:58.460Z,0.00
2023-02-14T05:16:58.390Z,0.00
2023-02-14T05:17:58.385Z,0.00
2023-02-14T05:18:58.428Z,0.00
2023-02-14T05:19:58.383Z,0.00
2023-02-14T05:20:58.769Z,0.00
2023-02-14T05:21:58.381Z,0.00
2023-02-14T05:22:58.367Z,0.00
2023-02-14T05:23:58.368Z,0.00
2023-02-14T05:24:58.374Z,0.00
2023-02-14T05:25:58.365Z,0.00
2023-02-14T05:26:58.355Z,0.00
2023-02-14T05:27:58.380Z,0.00
2023-02-14T05:28:58.348Z,0.00
2023-02-14T05:29:58.450Z,0.00
2023-02-14T05:30:58.854Z,0.00
2023-02-14T05:31:58.408Z,0.00
2023-02-14T05:32:58.354Z,0.00
2023-02-14T05:33:58.334Z,0.00
2023-02-14T05:35:00.972Z,0.00
2023-02-14T05:35:58.328Z,0.00
2023-02-14T05:36:58.321Z,0.00
2023-02-14T05:37:58.467Z,0.00
2023-02-14T05:38:58.319Z,0.00
2023-02-14T05:39:58.317Z,0.00
2023-02-14T05:40:58.714Z,0.00
2023-02-14T05:41:59.413Z,0.00
2023-02-14T05:42:58.301Z,0.00
2023-02-14T05:43:58.310Z,0.00
2023-02-14T05:44:58.294Z,0.00
2023-02-14T05:45:58.414Z,0.00
2023-02-14T05:46:58.300Z,0.00
2023-02-14T05:47:58.290Z,0.00
2023-02-14T05:48:58.283Z,0.00
2023-02-14T05:49:58.291Z,0.00
2023-02-14T05:50:58.597Z,0.00
2023-02-14T05:51:58.277Z,0.00
2023-02-14T05:52:58.270Z,0.00
2023-02-14T05:53:58.270Z,0.00
2023-02-14T05:54:58.272Z,0.00
2023-02-14T05:55:58.272Z,0.00
2023-02-14T05:56:58.257Z,0.00
2023-02-14T05:57:58.264Z,0.00
2023-02-14T05:58:58.268Z,0.00
2023-02-14T05:59:58.258Z,0.00
2023-02-14T06:00:58.651Z,0.00
2023-02-14T06:01:58.262Z,0.00
2023-02-14T06:02:58.246Z,0.00
2023-02-14T06:03:58.236Z,0.00
2023-02-14T06:04:58.231Z,0.00
2023-02-14T06:05:58.250Z,0.00
2023-02-14T06:06:58.253Z,0.00
2023-02-14T06:07:58.230Z,0.00
2023-02-14T06:08:58.242Z,0.00
2023-02-14T06:09:58.219Z,0.00
2023-02-14T06:10:58.658Z,0.00
2023-02-14T06:11:58.214Z,0.00
2023-02-14T06:12:58.208Z,0.00
2023-02-14T06:13:58.226Z,0.00
2023-02-14T06:14:58.216Z,0.00
2023-02-14T06:15:58.202Z,0.00
2023-02-14T06:16:58.273Z,0.00
2023-02-14T06:17:58.208Z,0.00
2023-02-14T06:18:58.192Z,0.00
2023-02-14T06:19:58.190Z,0.00
2023-02-14T06:20:58.573Z,0.00
2023-02-14T06:21:58.212Z,0.00
2023-02-14T06:22:58.197Z,0.00
2023-02-14T06:23:58.186Z,0.00
2023-02-14T06:24:58.170Z,0.00
2023-02-14T06:25:58.166Z,0.00
2023-02-14T06:26:58.176Z,0.00
2023-02-14T06:27:58.160Z,5.63
2023-02-14T06:28:58.157Z,5.63
2023-02-14T06:29:58.188Z,5.63
2023-02-14T06:30:58.512Z,5.63
2023-02-14T06:31:58.369Z,5.63
2023-02-14T06:32:58.141Z,5.63
2023-02-14T06:33:58.142Z,5.63
2023-02-14T06:34:58.133Z,5.63
2023-02-14T06:35:58.147Z,5.63
2023-02-14T06:36:58.125Z,5.63
2023-02-14T06:37:58.129Z,5.63
2023-02-14T06:38:58.139Z,11.25
2023-02-14T06:39:58.126Z,11.25
2023-02-14T06:41:00.581Z,11.25
2023-02-14T06:41:58.118Z,11.25
2023-02-14T06:42:58.120Z,11.25
2023-02-14T06:43:58.104Z,11.25
2023-02-14T06:44:58.096Z,11.25
2023-02-14T06:45:58.252Z,11.25
2023-02-14T06:46:58.097Z,11.25
2023-02-14T06:47:58.100Z,11.25
2023-02-14T06:48:58.081Z,16.88
2023-02-14T06:49:58.086Z,16.88
2023-02-14T06:50:58.610Z,16.88
2023-02-14T06:51:58.074Z,16.88
2023-02-14T06:52:58.075Z,16.88
2023-02-14T06:53:58.071Z,16.88
2023-02-14T06:54:58.085Z,16.88
2023-02-14T06:55:58.066Z,16.88
2023-02-14T06:56:58.066Z,22.50
2023-02-14T06:57:58.057Z,22.50
2023-02-14T06:58:58.056Z,22.50
2023-02-14T06:59:58.054Z,22.50
2023-02-14T07:00:58.445Z,22.50
2023-02-14T07:01:58.051Z,22.50
2023-02-14T07:02:58.170Z,22.50
2023-02-14T07:03:58.038Z,28.13
2023-02-14T07:04:58.036Z,28.13
2023-02-14T07:05:58.033Z,28.13
2023-02-14T07:06:58.027Z,28.13
2023-02-14T07:07:58.025Z,28.13
2023-02-14T07:08:58.023Z,28.13
2023-02-14T07:09:58.017Z,28.13
2023-02-14T07:10:58.673Z,33.75
2023-02-14T07:11:58.012Z,33.75
2023-02-14T07:12:58.005Z,39.38
2023-02-14T07:13:58.004Z,39.38
2023-02-14T07:14:57.998Z,39.38
2023-02-14T07:15:58.061Z,33.75
2023-02-14T07:16:57.999Z,33.75
2023-02-14T07:17:57.995Z,33.75
2023-02-14T07:18:57.982Z,33.75
2023-02-14T07:19:57.983Z,39.38
2023-02-14T07:20:58.582Z,39.38
2023-02-14T07:21:57.974Z,39.38
2023-02-14T07:22:57.971Z,39.38
2023-02-14T07:23:57.971Z,39.38
2023-02-14T07:24:57.982Z,39.38
2023-02-14T07:25:57.986Z,39.38
2023-02-14T07:26:57.986Z,39.38
2023-02-14T07:27:57.957Z,39.38
2023-02-14T07:28:57.969Z,45.00
2023-02-14T07:29:58.012Z,45.00
2023-02-14T07:30:58.298Z,45.00
2023-02-14T07:31:58.108Z,45.00
2023-02-14T07:32:57.942Z,45.00
2023-02-14T07:33:57.939Z,45.00
2023-02-14T07:34:57.929Z,50.63
2023-02-14T07:35:57.933Z,50.63
2023-02-14T07:36:57.936Z,56.25
2023-02-14T07:37:57.922Z,56.25
2023-02-14T07:38:57.921Z,56.25
2023-02-14T07:39:57.917Z,56.25
2023-02-14T07:40:58.368Z,56.25
2023-02-14T07:41:57.910Z,56.25
2023-02-14T07:42:57.925Z,56.25
2023-02-14T07:43:57.900Z,61.88
2023-02-14T07:44:57.893Z,61.88
2023-02-14T07:45:57.999Z,61.88
2023-02-14T07:46:57.904Z,61.88
2023-02-14T07:47:57.892Z,61.88
2023-02-14T07:48:57.887Z,61.88
2023-02-14T07:49:57.882Z,61.88
2023-02-14T07:50:58.461Z,67.50
2023-02-14T07:51:57.884Z,67.50
2023-02-14T07:52:57.872Z,67.50
2023-02-14T07:53:57.888Z,67.50
2023-02-14T07:54:57.887Z,67.50
2023-02-14T07:55:57.866Z,67.50
2023-02-14T07:56:57.878Z,73.13
2023-02-14T07:57:57.864Z,73.13
2023-02-14T07:58:57.891Z,73.13
2023-02-14T07:59:57.866Z,73.13
2023-02-14T08:00:58.346Z,78.75
2023-02-14T08:01:57.958Z,78.75
2023-02-14T08:02:57.841Z,78.75
2023-02-14T08:03:57.846Z,78.75
2023-02-14T08:04:57.909Z,84.38
2023-02-14T08:05:57.837Z,84.38
2023-02-14T08:06:57.823Z,84.38
2023-02-14T08:07:57.824Z,90.00
2023-02-14T08:08:57.824Z,90.00
2023-02-14T08:09:57.821Z,90.00
2023-02-14T08:10:58.060Z,95.63
2023-02-14T08:11:57.810Z,95.63
2023-02-14T08:12:57.798Z,95.63
2023-02-14T08:13:57.803Z,95.63
2023-02-14T08:14:57.819Z,95.63
2023-02-14T08:15:57.890Z,101.25
2023-02-14T08:16:57.784Z,101.25
2023-02-14T08:17:57.790Z,101.25
2023-02-14T08:18:57.782Z,101.25
2023-02-14T08:19:57.780Z,101.25
2023-02-14T08:20:58.143Z,101.25
2023-02-14T08:21:57.777Z,95.63
2023-02-14T08:22:57.764Z,95.63
2023-02-14T08:23:57.768Z,95.63
2023-02-14T08:24:57.757Z,95.63
2023-02-14T08:25:57.764Z,101.25
2023-02-14T08:26:57.759Z,101.25
2023-02-14T08:27:57.751Z,95.63
2023-02-14T08:28:57.745Z,95.63
2023-02-14T08:29:57.754Z,95.63
2023-02-14T08:30:58.286Z,101.25
2023-02-14T08:31:57.902Z,101.25
2023-02-14T08:32:57.811Z,101.25
2023-02-14T08:33:57.734Z,101.25
2023-02-14T08:34:57.724Z,101.25
2023-02-14T08:35:57.724Z,101.25
2023-02-14T08:36:57.719Z,101.25
2023-02-14T08:37:57.720Z,101.25
2023-02-14T08:38:57.812Z,101.25
2023-02-14T08:39:57.713Z,106.88
2023-02-14T08:40:58.036Z,106.88
2023-02-14T08:41:57.710Z,106.88
2023-02-14T08:42:57.704Z,112.50
2023-02-14T08:43:57.695Z,112.50
2023-02-14T08:44:57.697Z,112.50
2023-02-14T08:45:58.129Z,112.50
2023-02-14T08:46:57.728Z,112.50
2023-02-14T08:47:57.689Z,112.50
2023-02-14T08:48:57.700Z,118.13
2023-02-14T08:49:57.679Z,118.13
2023-02-14T08:50:58.052Z,118.13
2023-02-14T08:51:57.682Z,118.13
2023-02-14T08:52:57.678Z,112.50
2023-02-14T08:53:57.684Z,118.13
2023-02-14T08:54:57.685Z,118.13
2023-02-14T08:55:57.805Z,118.13
2023-02-14T08:56:57.652Z,118.13
2023-02-14T08:57:57.656Z,118.13
2023-02-14T08:58:57.655Z,118.13
2023-02-14T08:59:57.675Z,118.13
2023-02-14T09:00:58.025Z,123.75
2023-02-14T09:01:57.667Z,123.75
2023-02-14T09:02:57.671Z,123.75
2023-02-14T09:03:57.750Z,129.38
2023-02-14T09:04:57.632Z,129.38
2023-02-14T09:05:57.629Z,129.38
2023-02-14T09:06:57.632Z,129.38
2023-02-14T09:07:57.623Z,135.00
2023-02-14T09:08:57.614Z,135.00
2023-02-14T09:09:57.621Z,135.00
2023-02-14T09:10:58.088Z,135.00
2023-02-14T09:11:57.616Z,135.00
2023-02-14T09:12:57.614Z,135.00
2023-02-14T09:13:57.614Z,135.00
2023-02-14T09:14:57.623Z,135.00
2023-02-14T09:15:57.655Z,135.00
2023-02-14T09:16:57.665Z,135.00
2023-02-14T09:17:57.625Z,140.63
2023-02-14T09:18:57.752Z,140.63
2023-02-14T09:19:57.595Z,140.63
2023-02-14T09:20:57.911Z,140.63
2023-02-14T09:21:57.589Z,140.63
2023-02-14T09:22:57.586Z,140.63
2023-02-14T09:23:57.575Z,140.63
2023-02-14T09:24:57.578Z,140.63
2023-02-14T09:25:57.570Z,140.63
2023-02-14T09:26:57.564Z,140.63
2023-02-14T09:27:57.559Z,140.63
2023-02-14T09:28:57.568Z,140.63
2023-02-14T09:29:57.563Z,140.63
2023-02-14T09:30:57.833Z,140.63
2023-02-14T09:31:57.610Z,146.25
2023-02-14T09:32:57.546Z,146.25
2023-02-14T09:33:57.542Z,146.25
2023-02-14T09:34:57.571Z,146.25
2023-02-14T09:35:57.539Z,146.25
2023-02-14T09:36:57.531Z,146.25
2023-02-14T09:37:57.532Z,151.88
2023-02-14T09:38:57.528Z,157.50
2023-02-14T09:39:57.521Z,157.50
2023-02-14T09:40:57.764Z,163.13
2023-02-14T09:41:57.521Z,163.13
2023-02-14T09:42:57.519Z,163.13
2023-02-14T09:43:57.509Z,163.13
2023-02-14T09:44:57.522Z,163.13
2023-02-14T09:45:57.554Z,168.75
2023-02-14T09:46:57.506Z,168.75
2023-02-14T09:47:57.503Z,168.75
2023-02-14T09:48:57.552Z,168.75
2023-02-14T09:49:57.525Z,168.75
2023-02-14T09:50:57.682Z,168.75
2023-02-14T09:51:57.489Z,174.38
2023-02-14T09:52:57.502Z,180.00
2023-02-14T09:53:57.480Z,180.00
2023-02-14T09:54:57.512Z,174.38
2023-02-14T09:55:57.480Z,174.38
2023-02-14T09:56:57.488Z,174.38
2023-02-14T09:57:57.485Z,180.00
2023-02-14T09:58:57.470Z,180.00
2023-02-14T09:59:57.462Z,180.00
2023-02-14T10:00:57.666Z,174.38
2023-02-14T10:01:57.491Z,180.00
2023-02-14T10:02:57.458Z,180.00
2023-02-14T10:03:57.448Z,180.00
2023-02-14T10:04:57.470Z,180.00
2023-02-14T10:05:57.444Z,174.38
2023-02-14T10:06:57.470Z,174.38
2023-02-14T10:07:57.442Z,174.38
2023-02-14T10:08:57.440Z,174.38
2023-02-14T10:09:57.433Z,180.00
2023-02-14T10:10:57.717Z,180.00
2023-02-14T10:11:57.428Z,180.00
2023-02-14T10:12:57.434Z,185.63
2023-02-14T10:13:57.422Z,185.63
2023-02-14T10:14:57.428Z,185.63
2023-02-14T10:15:57.415Z,185.63
2023-02-14T10:16:57.492Z,185.63
2023-02-14T10:17:57.407Z,185.63
2023-02-14T10:18:57.412Z,191.25
2023-02-14T10:19:57.409Z,191.25
2023-02-14T10:20:57.649Z,191.25
2023-02-14T10:21:57.397Z,191.25
2023-02-14T10:22:57.424Z,191.25
2023-02-14T10:23:57.404Z,191.25
2023-02-14T10:24:57.405Z,191.25
2023-02-14T10:25:57.396Z,191.25
2023-02-14T10:26:57.385Z,185.63
2023-02-14T10:27:57.406Z,185.63
2023-02-14T10:28:57.386Z,185.63
2023-02-14T10:29:57.452Z,180.00
2023-02-14T10:30:57.524Z,174.38
2023-02-14T10:31:57.396Z,185.63
2023-02-14T10:32:57.372Z,191.25
2023-02-14T10:33:58.021Z,196.88
2023-02-14T10:34:57.376Z,202.50
2023-02-14T10:35:57.366Z,202.50
2023-02-14T10:36:57.364Z,208.13
2023-02-14T10:37:57.353Z,208.13
2023-02-14T10:38:57.356Z,208.13
2023-02-14T10:39:57.352Z,208.13
2023-02-14T10:40:57.562Z,208.13
2023-02-14T10:41:57.341Z,208.13
2023-02-14T10:42:57.343Z,213.75
2023-02-14T10:43:57.360Z,213.75
2023-02-14T10:44:57.348Z,219.38
2023-02-14T10:45:57.359Z,202.50
2023-02-14T10:46:57.332Z,191.25
2023-02-14T10:47:57.328Z,196.88
2023-02-14T10:48:57.330Z,208.13
2023-02-14T10:49:57.467Z,208.13
2023-02-14T10:50:57.594Z,208.13
2023-02-14T10:51:57.317Z,208.13
2023-02-14T10:52:57.317Z,202.50
2023-02-14T10:53:57.324Z,202.50
2023-02-14T10:54:57.309Z,202.50
2023-02-14T10:55:57.304Z,202.50
2023-02-14T10:56:58.567Z,213.75
2023-02-14T10:57:57.298Z,236.25
2023-02-14T10:58:57.310Z,236.25
2023-02-14T10:59:57.322Z,230.63
2023-02-14T11:00:57.434Z,219.38
2023-02-14T11:01:57.299Z,213.75
2023-02-14T11:02:57.289Z,213.75
2023-02-14T11:03:57.375Z,219.38
2023-02-14T11:04:57.291Z,225.00
2023-02-14T11:05:57.292Z,230.63
2023-02-14T11:06:57.283Z,219.38
2023-02-14T11:07:57.278Z,213.75
2023-02-14T11:08:57.568Z,180.00
2023-02-14T11:09:57.298Z,225.00
2023-02-14T11:10:57.272Z,230.63
2023-02-14T11:11:57.278Z,230.63
2023-02-14T11:12:57.282Z,219.38
2023-02-14T11:13:57.259Z,213.75
2023-02-14T11:14:57.260Z,213.75
2023-02-14T11:15:57.293Z,202.50
2023-02-14T11:16:57.304Z,208.13
2023-02-14T11:17:57.252Z,219.38
2023-02-14T11:18:57.249Z,219.38
2023-02-14T11:19:57.243Z,219.38
2023-02-14T11:20:57.246Z,213.75
2023-02-14T11:21:57.246Z,219.38
2023-02-14T11:22:57.239Z,213.75
2023-02-14T11:23:57.235Z,202.50
2023-02-14T11:24:57.242Z,208.13
2023-02-14T11:25:57.522Z,208.13
2023-02-14T11:26:57.233Z,213.75
2023-02-14T11:27:57.221Z,213.75
2023-02-14T11:28:57.225Z,219.38
2023-02-14T11:29:57.243Z,213.75
2023-02-14T11:30:57.341Z,213.75
2023-02-14T11:31:57.313Z,208.13
2023-02-14T11:32:57.216Z,202.50
2023-02-14T11:33:57.224Z,202.50
2023-02-14T11:34:57.216Z,202.50
2023-02-14T11:35:57.207Z,196.88
2023-02-14T11:36:57.215Z,202.50
2023-02-14T11:37:57.196Z,202.50
2023-02-14T11:38:57.199Z,202.50
2023-02-14T11:39:57.201Z,208.13
2023-02-14T11:40:57.491Z,202.50
2023-02-14T11:41:57.191Z,202.50
2023-02-14T11:43:12.864Z,202.50
2023-02-14T11:43:57.182Z,202.50
2023-02-14T11:44:57.184Z,208.13
2023-02-14T11:45:57.198Z,213.75
2023-02-14T11:46:57.186Z,213.75
2023-02-14T11:47:57.192Z,208.13
2023-02-14T11:48:57.196Z,208.13
2023-02-14T11:49:57.177Z,208.13
2023-02-14T11:50:57.298Z,208.13
2023-02-14T11:51:57.200Z,208.13
2023-02-14T11:52:57.196Z,213.75
2023-02-14T11:53:57.161Z,213.75
2023-02-14T11:54:57.165Z,208.13
2023-02-14T11:55:57.150Z,208.13
2023-02-14T11:56:57.168Z,208.13
2023-02-14T11:57:57.149Z,213.75
2023-02-14T11:58:57.160Z,213.75
2023-02-14T11:59:57.163Z,219.38
2023-02-14T12:00:57.411Z,230.63
2023-02-14T12:01:57.145Z,236.25
2023-02-14T12:02:57.140Z,236.25
2023-02-14T12:03:57.265Z,219.38
2023-02-14T12:04:57.140Z,208.13
2023-02-14T12:05:57.129Z,202.50
2023-02-14T12:06:57.137Z,202.50
2023-02-14T12:07:57.131Z,208.13
2023-02-14T12:08:57.133Z,202.50
2023-02-14T12:09:58.747Z,202.50
2023-02-14T12:10:57.163Z,202.50
2023-02-14T12:11:57.118Z,208.13
2023-02-14T12:12:57.118Z,213.75
2023-02-14T12:13:57.119Z,213.75
2023-02-14T12:14:57.111Z,219.38
2023-02-14T12:15:57.138Z,219.38
2023-02-14T12:16:57.119Z,219.38
2023-02-14T12:17:57.108Z,219.38
2023-02-14T12:18:57.117Z,225.00
2023-02-14T12:19:57.115Z,230.63
2023-02-14T12:20:57.273Z,230.63
2023-02-14T12:21:57.097Z,230.63
2023-02-14T12:22:57.093Z,236.25
2023-02-14T12:23:57.092Z,241.88
2023-02-14T12:24:57.090Z,236.25
2023-02-14T12:25:57.090Z,241.88
2023-02-14T12:26:57.099Z,247.50
2023-02-14T12:27:57.076Z,258.75
2023-02-14T12:28:57.080Z,253.13
2023-02-14T12:29:57.097Z,258.75
2023-02-14T12:30:57.160Z,253.13
2023-02-14T12:31:57.242Z,241.88
2023-02-14T12:32:57.069Z,225.00
2023-02-14T12:33:57.064Z,219.38
2023-02-14T12:34:57.078Z,213.75
2023-02-14T12:35:57.077Z,219.38
2023-02-14T12:36:57.052Z,219.38
2023-02-14T12:38:04.388Z,225.00
2023-02-14T12:38:57.057Z,225.00
2023-02-14T12:39:57.045Z,219.38
2023-02-14T12:40:57.048Z,213.75
2023-02-14T12:41:57.034Z,219.38
2023-02-14T12:42:57.040Z,225.00
2023-02-14T12:43:57.035Z,230.63
2023-02-14T12:44:57.032Z,236.25
2023-02-14T12:45:57.025Z,241.88
2023-02-14T12:46:57.040Z,241.88
2023-02-14T12:47:57.020Z,241.88
2023-02-14T12:48:57.031Z,230.63
2023-02-14T12:49:57.021Z,219.38
2023-02-14T12:50:57.018Z,213.75
2023-02-14T12:51:57.051Z,219.38
2023-02-14T12:52:57.016Z,225.00
2023-02-14T12:53:57.013Z,236.25
2023-02-14T12:54:57.012Z,241.88
2023-02-14T12:55:57.015Z,247.50
2023-02-14T12:56:57.026Z,241.88